sensor_id;sensor_type;location;lat;lon;timestamp;temperature;humidity
20418;DHT22;10368;51.436;6.774;2023-02-01T00:29:15;6.40;99.90
20418;DHT22;10368;51.436;6.774;2023-02-01T00:31:43;6.20;99.90
20418;DHT22;10368;51.436;6.774;2023-02-01T00:34:14;6.20;99.90
20418;DHT22;10368;51.436;6.774;2023-02-01T00:36:42;6.30;99.90
20418;DHT22;10368;51.436;6.774;2023-02-01T00:39:10;6.30;99.90
20418;DHT22;10368;51.436;6.774;2023-02-01T00:41:37;6.30;99.90
20418;DHT22;10368;51.436;6.774;2023-02-01T00:44:04;6.30;99.90
20418;DHT22;10368;51.436;6.774;2023-02-01T00:46:31;6.30;99.90
20418;DHT22;10368;51.436;6.774;2023-02-01T00:48:58;6.30;99.90
20418;DHT22;10368;51.436;6.774;2023-02-01T10:22:42;6.30;99.90
20418;DHT22;10368;51.436;6.774;2023-02-01T10:28:04;7.00;99.90
20418;DHT22;10368;51.436;6.774;2023-02-01T10:30:39;7.10;99.90
20418;DHT22;10368;51.436;6.774;2023-02-01T10:33:18;7.10;99.90
20418;DHT22;10368;51.436;6.774;2023-02-01T10:35:46;7.10;99.90
20418;DHT22;10368;51.436;6.774;2023-02-01T10:38:24;7.10;99.90
20418;DHT22;10368;51.436;6.774;2023-02-01T10:40:55;7.10;99.90
20418;DHT22;10368;51.436;6.774;2023-02-01T10:43:23;7.10;99.90
20418;DHT22;10368;51.436;6.774;2023-02-01T10:45:51;7.10;99.90
20418;DHT22;10368;51.436;6.774;2023-02-01T10:48:18;7.10;99.90
20418;DHT22;10368;51.436;6.774;2023-02-01T10:50:51;7.10;99.90
20418;DHT22;10368;51.436;6.774;2023-02-01T10:53:31;7.10;99.90
20418;DHT22;10368;51.436;6.774;2023-02-01T10:56:07;7.10;99.90
20418;DHT22;10368;51.436;6.774;2023-02-01T10:58:36;7.10;99.90
20418;DHT22;10368;51.436;6.774;2023-02-01T11:01:08;7.10;99.90
20418;DHT22;10368;51.436;6.774;2023-02-01T11:03:53;7.10;99.90
20418;DHT22;10368;51.436;6.774;2023-02-01T11:06:35;7.10;99.90
20418;DHT22;10368;51.436;6.774;2023-02-01T11:19:39;7.30;99.90
20418;DHT22;10368;51.436;6.774;2023-02-01T11:22:06;7.40;99.90
20418;DHT22;10368;51.436;6.774;2023-02-01T11:24:35;7.40;99.90
20418;DHT22;10368;51.436;6.774;2023-02-01T11:27:15;7.30;99.90
20418;DHT22;10368;51.436;6.774;2023-02-01T11:29:57;7.40;99.90
20418;DHT22;10368;51.436;6.774;2023-02-01T11:32:26;7.40;99.90
20418;DHT22;10368;51.436;6.774;2023-02-01T11:34:55;7.40;99.90
20418;DHT22;10368;51.436;6.774;2023-02-01T11:37:29;7.30;99.90
20418;DHT22;10368;51.436;6.774;2023-02-01T11:39:59;7.30;99.90
20418;DHT22;10368;51.436;6.774;2023-02-01T11:42:27;7.40;99.90
20418;DHT22;10368;51.436;6.774;2023-02-01T11:47:46;7.40;99.90
20418;DHT22;10368;51.436;6.774;2023-02-01T11:50:25;7.30;99.90
20418;DHT22;10368;51.436;6.774;2023-02-01T12:16:14;7.20;99.90
20418;DHT22;10368;51.436;6.774;2023-02-01T12:24:47;7.30;99.90
20418;DHT22;10368;51.436;6.774;2023-02-01T12:47:03;7.60;99.90
20418;DHT22;10368;51.436;6.774;2023-02-01T12:52:20;7.70;99.90
20418;DHT22;10368;51.436;6.774;2023-02-01T12:57:32;7.70;99.90
20418;DHT22;10368;51.436;6.774;2023-02-01T13:02:49;7.70;99.90
20418;DHT22;10368;51.436;6.774;2023-02-01T13:05:20;7.80;99.90
20418;DHT22;10368;51.436;6.774;2023-02-01T13:08:24;7.70;99.90
20418;DHT22;10368;51.436;6.774;2023-02-01T13:10:50;7.70;99.90
20418;DHT22;10368;51.436;6.774;2023-02-01T13:13:19;7.70;99.90
20418;DHT22;10368;51.436;6.774;2023-02-01T13:16:12;7.60;99.90
20418;DHT22;10368;51.436;6.774;2023-02-01T13:18:39;7.60;99.90
20418;DHT22;10368;51.436;6.774;2023-02-01T13:21:48;7.60;99.90
20418;DHT22;10368;51.436;6.774;2023-02-01T13:24:32;7.60;99.90
20418;DHT22;10368;51.436;6.774;2023-02-01T13:27:00;7.70;99.90
20418;DHT22;10368;51.436;6.774;2023-02-01T13:29:29;7.70;99.90
20418;DHT22;10368;51.436;6.774;2023-02-01T13:38:01;7.80;99.90
20418;DHT22;10368;51.436;6.774;2023-02-01T13:40:40;7.80;99.90
20418;DHT22;10368;51.436;6.774;2023-02-01T13:45:46;7.90;99.90
20418;DHT22;10368;51.436;6.774;2023-02-01T13:51:07;7.90;99.90
20418;DHT22;10368;51.436;6.774;2023-02-01T13:53:36;7.90;99.90
20418;DHT22;10368;51.436;6.774;2023-02-01T13:56:11;7.90;99.90
20418;DHT22;10368;51.436;6.774;2023-02-01T13:58:41;8.00;99.90
20418;DHT22;10368;51.436;6.774;2023-02-01T14:03:55;8.00;99.90
20418;DHT22;10368;51.436;6.774;2023-02-01T14:19:33;8.10;99.90
20418;DHT22;10368;51.436;6.774;2023-02-01T14:24:57;8.10;99.90
20418;DHT22;10368;51.436;6.774;2023-02-01T14:27:30;8.10;99.90
20418;DHT22;10368;51.436;6.774;2023-02-01T14:30:00;8.20;99.90
20418;DHT22;10368;51.436;6.774;2023-02-01T14:32:33;8.20;99.90
20418;DHT22;10368;51.436;6.774;2023-02-01T14:35:02;8.20;99.90
20418;DHT22;10368;51.436;6.774;2023-02-01T14:37:34;8.20;99.90
20418;DHT22;10368;51.436;6.774;2023-02-01T14:40:20;8.20;99.90
20418;DHT22;10368;51.436;6.774;2023-02-01T14:42:53;8.20;99.90
20418;DHT22;10368;51.436;6.774;2023-02-01T15:00:55;8.20;99.90
20418;DHT22;10368;51.436;6.774;2023-02-01T15:06:24;8.20;99.90
20418;DHT22;10368;51.436;6.774;2023-02-01T15:09:00;8.20;99.90
20418;DHT22;10368;51.436;6.774;2023-02-01T15:11:28;8.20;99.90
20418;DHT22;10368;51.436;6.774;2023-02-01T15:13:55;8.30;99.90
20418;DHT22;10368;51.436;6.774;2023-02-01T15:16:25;8.30;99.90
20418;DHT22;10368;51.436;6.774;2023-02-01T15:19:07;8.30;99.90
20418;DHT22;10368;51.436;6.774;2023-02-01T15:21:48;8.30;99.90
20418;DHT22;10368;51.436;6.774;2023-02-01T15:26:54;8.30;99.90
20418;DHT22;10368;51.436;6.774;2023-02-01T15:29:23;8.30;99.90
20418;DHT22;10368;51.436;6.774;2023-02-01T15:31:54;8.30;99.90
20418;DHT22;10368;51.436;6.774;2023-02-01T15:34:21;8.30;99.90
20418;DHT22;10368;51.436;6.774;2023-02-01T15:36:48;8.30;99.90
20418;DHT22;10368;51.436;6.774;2023-02-01T15:39:29;8.30;99.90
20418;DHT22;10368;51.436;6.774;2023-02-01T15:42:01;8.30;99.90
20418;DHT22;10368;51.436;6.774;2023-02-01T15:44:40;8.30;99.90
20418;DHT22;10368;51.436;6.774;2023-02-01T15:47:15;8.20;99.90
20418;DHT22;10368;51.436;6.774;2023-02-01T15:49:44;8.20;99.90
20418;DHT22;10368;51.436;6.774;2023-02-01T15:52:24;8.20;99.90
20418;DHT22;10368;51.436;6.774;2023-02-01T15:54:57;8.20;99.90
20418;DHT22;10368;51.436;6.774;2023-02-01T15:57:29;8.20;99.90
20418;DHT22;10368;51.436;6.774;2023-02-01T16:00:18;8.20;99.90
20418;DHT22;10368;51.436;6.774;2023-02-01T16:02:54;8.20;99.90
20418;DHT22;10368;51.436;6.774;2023-02-01T16:05:37;8.20;99.90
20418;DHT22;10368;51.436;6.774;2023-02-01T16:08:14;8.20;99.90
20418;DHT22;10368;51.436;6.774;2023-02-01T16:10:47;8.20;99.90
20418;DHT22;10368;51.436;6.774;2023-02-01T16:13:15;8.10;99.90
20418;DHT22;10368;51.436;6.774;2023-02-01T16:15:43;8.10;99.90
20418;DHT22;10368;51.436;6.774;2023-02-01T16:18:11;8.10;99.90
20418;DHT22;10368;51.436;6.774;2023-02-01T16:20:40;8.10;99.90
20418;DHT22;10368;51.436;6.774;2023-02-01T16:23:08;8.00;99.90
20418;DHT22;10368;51.436;6.774;2023-02-01T16:25:36;7.90;99.90
20418;DHT22;10368;51.436;6.774;2023-02-01T16:28:04;7.90;99.90
20418;DHT22;10368;51.436;6.774;2023-02-01T16:30:32;7.80;99.90
20418;DHT22;10368;51.436;6.774;2023-02-01T16:33:00;7.80;99.90
20418;DHT22;10368;51.436;6.774;2023-02-01T16:35:33;7.90;99.90
20418;DHT22;10368;51.436;6.774;2023-02-01T16:38:10;7.90;99.90
20418;DHT22;10368;51.436;6.774;2023-02-01T16:40:41;7.90;99.90
20418;DHT22;10368;51.436;6.774;2023-02-01T16:43:16;8.00;99.90
20418;DHT22;10368;51.436;6.774;2023-02-01T16:45:45;8.00;99.90
20418;DHT22;10368;51.436;6.774;2023-02-01T16:48:23;8.00;99.90
20418;DHT22;10368;51.436;6.774;2023-02-01T16:50:56;8.00;99.90
20418;DHT22;10368;51.436;6.774;2023-02-01T16:53:25;8.00;99.90
20418;DHT22;10368;51.436;6.774;2023-02-01T16:55:54;8.00;99.90
20418;DHT22;10368;51.436;6.774;2023-02-01T16:58:21;8.10;99.90
20418;DHT22;10368;51.436;6.774;2023-02-01T17:00:48;8.10;99.90
20418;DHT22;10368;51.436;6.774;2023-02-01T17:03:15;8.10;99.90
20418;DHT22;10368;51.436;6.774;2023-02-01T17:05:48;8.10;99.90
20418;DHT22;10368;51.436;6.774;2023-02-01T17:08:43;8.10;99.90
20418;DHT22;10368;51.436;6.774;2023-02-01T17:11:10;8.00;99.90
20418;DHT22;10368;51.436;6.774;2023-02-01T17:13:37;8.00;99.90
20418;DHT22;10368;51.436;6.774;2023-02-01T17:16:30;8.00;99.90
20418;DHT22;10368;51.436;6.774;2023-02-01T17:19:06;8.00;99.90
20418;DHT22;10368;51.436;6.774;2023-02-01T17:21:42;8.00;99.90
20418;DHT22;10368;51.436;6.774;2023-02-01T17:24:13;8.00;99.90
20418;DHT22;10368;51.436;6.774;2023-02-01T17:26:41;8.00;99.90
20418;DHT22;10368;51.436;6.774;2023-02-01T17:29:09;8.10;99.90
20418;DHT22;10368;51.436;6.774;2023-02-01T17:31:39;8.10;99.90
20418;DHT22;10368;51.436;6.774;2023-02-01T17:34:09;8.00;99.90
20418;DHT22;10368;51.436;6.774;2023-02-01T17:36:36;8.00;99.90
20418;DHT22;10368;51.436;6.774;2023-02-01T17:39:05;8.00;99.90
20418;DHT22;10368;51.436;6.774;2023-02-01T17:41:33;8.00;99.90
20418;DHT22;10368;51.436;6.774;2023-02-01T17:44:00;8.00;99.90
20418;DHT22;10368;51.436;6.774;2023-02-01T17:46:27;8.00;99.90
20418;DHT22;10368;51.436;6.774;2023-02-01T17:48:54;8.00;99.90
20418;DHT22;10368;51.436;6.774;2023-02-01T17:51:23;8.00;99.90
20418;DHT22;10368;51.436;6.774;2023-02-01T17:53:51;8.00;99.90
20418;DHT22;10368;51.436;6.774;2023-02-01T17:56:23;8.00;99.90
20418;DHT22;10368;51.436;6.774;2023-02-01T17:58:50;8.00;99.90
20418;DHT22;10368;51.436;6.774;2023-02-01T18:01:20;7.90;99.90
20418;DHT22;10368;51.436;6.774;2023-02-01T18:03:47;7.90;99.90
20418;DHT22;10368;51.436;6.774;2023-02-01T18:06:22;7.90;99.90
20418;DHT22;10368;51.436;6.774;2023-02-01T18:08:49;7.90;99.90
20418;DHT22;10368;51.436;6.774;2023-02-01T18:11:18;7.90;99.90
20418;DHT22;10368;51.436;6.774;2023-02-01T18:13:46;8.00;99.90
20418;DHT22;10368;51.436;6.774;2023-02-01T18:16:22;8.00;99.90
20418;DHT22;10368;51.436;6.774;2023-02-01T18:18:50;8.00;99.90
20418;DHT22;10368;51.436;6.774;2023-02-01T18:21:19;8.00;99.90
20418;DHT22;10368;51.436;6.774;2023-02-01T18:23:47;8.00;99.90
20418;DHT22;10368;51.436;6.774;2023-02-01T18:26:16;8.00;99.90
20418;DHT22;10368;51.436;6.774;2023-02-01T18:28:43;8.00;99.90
20418;DHT22;10368;51.436;6.774;2023-02-01T18:31:30;8.00;99.90
20418;DHT22;10368;51.436;6.774;2023-02-01T18:33:58;8.00;99.90
20418;DHT22;10368;51.436;6.774;2023-02-01T18:36:26;8.10;99.90
20418;DHT22;10368;51.436;6.774;2023-02-01T18:38:54;8.10;99.90
20418;DHT22;10368;51.436;6.774;2023-02-01T18:41:23;8.10;99.90
20418;DHT22;10368;51.436;6.774;2023-02-01T18:43:51;8.10;99.90
20418;DHT22;10368;51.436;6.774;2023-02-01T18:46:19;8.10;99.90
20418;DHT22;10368;51.436;6.774;2023-02-01T18:48:47;8.10;99.90
20418;DHT22;10368;51.436;6.774;2023-02-01T18:51:19;8.10;99.90
20418;DHT22;10368;51.436;6.774;2023-02-01T18:53:47;8.10;99.90
20418;DHT22;10368;51.436;6.774;2023-02-01T18:56:15;8.10;99.90
20418;DHT22;10368;51.436;6.774;2023-02-01T18:58:44;8.10;99.90
20418;DHT22;10368;51.436;6.774;2023-02-01T19:01:17;8.10;99.90
20418;DHT22;10368;51.436;6.774;2023-02-01T19:03:46;8.10;99.90
20418;DHT22;10368;51.436;6.774;2023-02-01T19:06:24;8.10;99.90
20418;DHT22;10368;51.436;6.774;2023-02-01T19:08:51;8.10;99.90
20418;DHT22;10368;51.436;6.774;2023-02-01T19:11:21;8.10;99.90
20418;DHT22;10368;51.436;6.774;2023-02-01T19:13:49;8.10;99.90
20418;DHT22;10368;51.436;6.774;2023-02-01T19:16:17;8.10;99.90
20418;DHT22;10368;51.436;6.774;2023-02-01T19:18:43;8.10;99.90
20418;DHT22;10368;51.436;6.774;2023-02-01T19:21:12;8.10;99.90
20418;DHT22;10368;51.436;6.774;2023-02-01T19:23:40;8.10;99.90
20418;DHT22;10368;51.436;6.774;2023-02-01T19:26:11;8.10;99.90
20418;DHT22;10368;51.436;6.774;2023-02-01T19:28:38;8.20;99.90
20418;DHT22;10368;51.436;6.774;2023-02-01T19:31:07;8.10;99.90
20418;DHT22;10368;51.436;6.774;2023-02-01T19:33:34;8.10;99.90
20418;DHT22;10368;51.436;6.774;2023-02-01T19:36:04;8.10;99.90
20418;DHT22;10368;51.436;6.774;2023-02-01T19:38:32;8.10;99.90
20418;DHT22;10368;51.436;6.774;2023-02-01T19:40:59;8.00;99.90
20418;DHT22;10368;51.436;6.774;2023-02-01T19:43:27;8.00;99.90
20418;DHT22;10368;51.436;6.774;2023-02-01T19:45:54;8.00;99.90
20418;DHT22;10368;51.436;6.774;2023-02-01T19:48:21;8.00;99.90
20418;DHT22;10368;51.436;6.774;2023-02-01T19:50:48;7.90;99.90
20418;DHT22;10368;51.436;6.774;2023-02-01T19:53:15;7.90;99.90
20418;DHT22;10368;51.436;6.774;2023-02-01T19:55:45;7.90;99.90
20418;DHT22;10368;51.436;6.774;2023-02-01T19:58:12;7.90;99.90
20418;DHT22;10368;51.436;6.774;2023-02-01T20:00:40;7.90;99.90
20418;DHT22;10368;51.436;6.774;2023-02-01T20:03:07;7.90;99.90
20418;DHT22;10368;51.436;6.774;2023-02-01T20:05:35;7.90;99.90
20418;DHT22;10368;51.436;6.774;2023-02-01T20:08:05;8.00;99.90
20418;DHT22;10368;51.436;6.774;2023-02-01T20:10:35;8.00;99.90
20418;DHT22;10368;51.436;6.774;2023-02-01T20:13:02;7.40;99.90
20418;DHT22;10368;51.436;6.774;2023-02-01T20:15:29;6.90;99.90
20418;DHT22;10368;51.436;6.774;2023-02-01T20:17:56;6.20;99.90
20418;DHT22;10368;51.436;6.774;2023-02-01T20:20:22;5.80;99.90
20418;DHT22;10368;51.436;6.774;2023-02-01T20:22:51;5.50;99.90
20418;DHT22;10368;51.436;6.774;2023-02-01T20:25:18;5.50;99.90
20418;DHT22;10368;51.436;6.774;2023-02-01T20:27:45;5.50;99.90
20418;DHT22;10368;51.436;6.774;2023-02-01T20:30:12;5.60;99.90
20418;DHT22;10368;51.436;6.774;2023-02-01T20:32:48;5.70;99.90
20418;DHT22;10368;51.436;6.774;2023-02-01T20:35:17;5.60;99.90
20418;DHT22;10368;51.436;6.774;2023-02-01T20:37:44;5.70;99.90
20418;DHT22;10368;51.436;6.774;2023-02-01T20:40:11;5.70;99.90
20418;DHT22;10368;51.436;6.774;2023-02-01T20:42:38;5.80;99.90
20418;DHT22;10368;51.436;6.774;2023-02-01T20:45:07;5.80;99.90
20418;DHT22;10368;51.436;6.774;2023-02-01T20:47:34;5.90;99.90
20418;DHT22;10368;51.436;6.774;2023-02-01T20:50:02;6.00;99.90
20418;DHT22;10368;51.436;6.774;2023-02-01T20:52:29;5.90;99.90
20418;DHT22;10368;51.436;6.774;2023-02-01T20:54:56;5.90;99.90
20418;DHT22;10368;51.436;6.774;2023-02-01T20:57:22;5.90;99.90
20418;DHT22;10368;51.436;6.774;2023-02-01T20:59:50;6.00;99.90
20418;DHT22;10368;51.436;6.774;2023-02-01T21:02:16;6.00;99.90
20418;DHT22;10368;51.436;6.774;2023-02-01T21:04:43;6.10;99.90
20418;DHT22;10368;51.436;6.774;2023-02-01T21:07:10;6.10;99.90
20418;DHT22;10368;51.436;6.774;2023-02-01T21:09:37;6.10;99.90
20418;DHT22;10368;51.436;6.774;2023-02-01T21:12:08;6.20;99.90
20418;DHT22;10368;51.436;6.774;2023-02-01T21:14:35;6.20;99.90
20418;DHT22;10368;51.436;6.774;2023-02-01T21:17:02;6.30;99.90
20418;DHT22;10368;51.436;6.774;2023-02-01T21:19:28;6.30;99.90
20418;DHT22;10368;51.436;6.774;2023-02-01T21:22:09;6.40;99.90
20418;DHT22;10368;51.436;6.774;2023-02-01T21:24:40;6.40;99.90
20418;DHT22;10368;51.436;6.774;2023-02-01T21:27:08;6.60;99.90
20418;DHT22;10368;51.436;6.774;2023-02-01T21:29:35;7.00;99.90
20418;DHT22;10368;51.436;6.774;2023-02-01T21:32:02;7.20;99.90
20418;DHT22;10368;51.436;6.774;2023-02-01T21:34:29;7.50;99.90
20418;DHT22;10368;51.436;6.774;2023-02-01T21:36:56;7.60;99.90
20418;DHT22;10368;51.436;6.774;2023-02-01T21:39:24;7.70;99.90
20418;DHT22;10368;51.436;6.774;2023-02-01T21:41:53;7.70;99.90
20418;DHT22;10368;51.436;6.774;2023-02-01T21:44:39;7.80;99.90
20418;DHT22;10368;51.436;6.774;2023-02-01T21:47:08;7.80;99.90
20418;DHT22;10368;51.436;6.774;2023-02-01T21:49:36;7.70;99.90
20418;DHT22;10368;51.436;6.774;2023-02-01T21:52:03;7.70;99.90
20418;DHT22;10368;51.436;6.774;2023-02-01T21:54:30;7.70;99.90
20418;DHT22;10368;51.436;6.774;2023-02-01T21:56:57;7.80;99.90
20418;DHT22;10368;51.436;6.774;2023-02-01T21:59:23;7.80;99.90
20418;DHT22;10368;51.436;6.774;2023-02-01T22:01:50;7.80;99.90
20418;DHT22;10368;51.436;6.774;2023-02-01T22:04:17;7.80;99.90
20418;DHT22;10368;51.436;6.774;2023-02-01T22:06:44;7.70;99.90
20418;DHT22;10368;51.436;6.774;2023-02-01T22:09:20;7.70;99.90
20418;DHT22;10368;51.436;6.774;2023-02-01T22:11:48;7.70;99.90
20418;DHT22;10368;51.436;6.774;2023-02-01T22:14:15;7.70;99.90
20418;DHT22;10368;51.436;6.774;2023-02-01T22:16:43;7.70;99.90
20418;DHT22;10368;51.436;6.774;2023-02-01T22:19:10;7.60;99.90
20418;DHT22;10368;51.436;6.774;2023-02-01T22:21:42;7.50;99.90
20418;DHT22;10368;51.436;6.774;2023-02-01T22:24:13;7.30;99.90
20418;DHT22;10368;51.436;6.774;2023-02-01T22:26:41;7.30;99.90
20418;DHT22;10368;51.436;6.774;2023-02-01T22:29:09;7.40;99.90
20418;DHT22;10368;51.436;6.774;2023-02-01T22:31:38;7.40;99.90
20418;DHT22;10368;51.436;6.774;2023-02-01T22:34:09;7.50;99.90
20418;DHT22;10368;51.436;6.774;2023-02-01T22:36:36;7.60;99.90
20418;DHT22;10368;51.436;6.774;2023-02-01T22:39:03;7.60;99.90
20418;DHT22;10368;51.436;6.774;2023-02-01T22:41:30;7.70;99.90
20418;DHT22;10368;51.436;6.774;2023-02-01T22:43:57;7.70;99.90
20418;DHT22;10368;51.436;6.774;2023-02-01T22:46:27;7.70;99.90
20418;DHT22;10368;51.436;6.774;2023-02-01T22:48:55;7.80;99.90
20418;DHT22;10368;51.436;6.774;2023-02-01T22:51:25;7.80;99.90
20418;DHT22;10368;51.436;6.774;2023-02-01T22:53:53;7.80;99.90
20418;DHT22;10368;51.436;6.774;2023-02-01T22:56:31;7.80;99.90
20418;DHT22;10368;51.436;6.774;2023-02-01T22:59:04;7.80;99.90
20418;DHT22;10368;51.436;6.774;2023-02-01T23:01:32;7.80;99.90
20418;DHT22;10368;51.436;6.774;2023-02-01T23:04:01;7.90;99.90
20418;DHT22;10368;51.436;6.774;2023-02-01T23:06:30;7.80;99.90
20418;DHT22;10368;51.436;6.774;2023-02-01T23:09:00;7.80;99.90
20418;DHT22;10368;51.436;6.774;2023-02-01T23:11:27;7.80;99.90
20418;DHT22;10368;51.436;6.774;2023-02-01T23:13:54;7.70;99.90
20418;DHT22;10368;51.436;6.774;2023-02-01T23:16:22;7.70;99.90
20418;DHT22;10368;51.436;6.774;2023-02-01T23:18:49;7.80;99.90
20418;DHT22;10368;51.436;6.774;2023-02-01T23:21:17;7.90;99.90
20418;DHT22;10368;51.436;6.774;2023-02-01T23:23:50;7.90;99.90
20418;DHT22;10368;51.436;6.774;2023-02-01T23:26:18;7.90;99.90
20418;DHT22;10368;51.436;6.774;2023-02-01T23:28:45;7.90;99.90
20418;DHT22;10368;51.436;6.774;2023-02-01T23:31:13;7.90;99.90
20418;DHT22;10368;51.436;6.774;2023-02-01T23:33:42;7.90;99.90
20418;DHT22;10368;51.436;6.774;2023-02-01T23:36:11;7.90;99.90
20418;DHT22;10368;51.436;6.774;2023-02-01T23:38:44;7.90;99.90
20418;DHT22;10368;51.436;6.774;2023-02-01T23:41:13;7.90;99.90
20418;DHT22;10368;51.436;6.774;2023-02-01T23:43:41;7.90;99.90
20418;DHT22;10368;51.436;6.774;2023-02-01T23:48:51;7.70;99.90
20418;DHT22;10368;51.436;6.774;2023-02-01T23:51:19;7.60;99.90
20418;DHT22;10368;51.436;6.774;2023-02-01T23:53:46;7.50;99.90
20418;DHT22;10368;51.436;6.774;2023-02-01T23:56:34;7.50;99.90
20418;DHT22;10368;51.436;6.774;2023-02-01T23:59:06;7.50;99.90
